createdAt,value
2023-04-29T00:01:03.770Z,23.39
2023-04-29T00:03:36.124Z,24.36
2023-04-29T00:06:08.852Z,24.37
2023-04-29T00:08:41.536Z,25.04
2023-04-29T00:11:14.076Z,25.31
2023-04-29T00:13:46.244Z,25.31
2023-04-29T00:16:22.772Z,25.91
2023-04-29T00:18:55.646Z,25.72
2023-04-29T00:21:28.210Z,25.93
2023-04-29T00:24:01.077Z,26.08
2023-04-29T00:26:33.331Z,25.36
2023-04-29T00:29:05.707Z,25.79
2023-04-29T00:31:40.549Z,25.30
2023-04-29T00:34:12.867Z,25.74
2023-04-29T00:36:45.074Z,25.38
2023-04-29T00:39:17.317Z,26.49
2023-04-29T00:41:49.633Z,25.84
2023-04-29T00:44:21.967Z,26.11
2023-04-29T00:46:56.766Z,26.22
2023-04-29T00:49:29.167Z,25.82
2023-04-29T00:52:03.251Z,25.55
2023-04-29T00:54:35.659Z,26.60
2023-04-29T00:57:09.090Z,25.27
2023-04-29T00:59:42.670Z,24.93
2023-04-29T01:02:19.143Z,24.11
2023-04-29T01:04:51.401Z,24.02
2023-04-29T01:07:33.460Z,24.57
2023-04-29T01:10:13.607Z,24.46
2023-04-29T01:12:54.974Z,25.32
2023-04-29T01:15:34.470Z,24.45
2023-04-29T01:18:19.641Z,24.05
2023-04-29T01:20:52.793Z,23.95
2023-04-29T01:23:25.111Z,24.08
2023-04-29T01:26:00.560Z,24.07
2023-04-29T01:28:50.434Z,23.76
2023-04-29T01:31:29.168Z,23.88
2023-04-29T01:34:13.226Z,24.38
2023-04-29T01:36:58.207Z,23.50
2023-04-29T01:39:41.773Z,23.47
2023-04-29T01:42:28.423Z,23.66
2023-04-29T01:45:09.406Z,23.63
2023-04-29T01:47:43.314Z,23.84
2023-04-29T01:50:15.971Z,23.42
2023-04-29T01:52:48.222Z,23.64
2023-04-29T01:55:20.670Z,23.06
2023-04-29T01:57:55.793Z,23.56
2023-04-29T02:00:28.063Z,23.13
2023-04-29T02:03:00.399Z,23.93
2023-04-29T02:05:34.474Z,23.36
2023-04-29T02:08:07.707Z,23.34
2023-04-29T02:10:40.002Z,24.06
2023-04-29T02:13:14.943Z,23.10
2023-04-29T02:15:47.210Z,23.06
2023-04-29T02:18:19.560Z,22.43
2023-04-29T02:20:54.493Z,22.19
2023-04-29T02:23:26.695Z,22.52
2023-04-29T02:25:58.997Z,21.92
2023-04-29T02:28:34.964Z,22.36
2023-04-29T02:31:07.343Z,21.37
2023-04-29T02:33:39.625Z,20.87
2023-04-29T02:36:11.916Z,20.59
2023-04-29T02:38:44.141Z,20.51
2023-04-29T02:41:21.170Z,20.36
2023-04-29T02:43:56.066Z,20.57
2023-04-29T02:46:28.328Z,19.56
2023-04-29T02:49:00.928Z,19.44
2023-04-29T02:51:33.688Z,18.92
2023-04-29T02:54:05.929Z,19.28
2023-04-29T02:56:38.233Z,19.36
2023-04-29T02:59:13.137Z,18.78
2023-04-29T03:01:45.422Z,18.87
2023-04-29T03:04:17.958Z,18.60
2023-04-29T03:06:50.371Z,18.81
2023-04-29T03:09:22.752Z,18.64
2023-04-29T03:11:55.043Z,18.37
2023-04-29T03:14:29.911Z,18.61
2023-04-29T03:17:02.128Z,18.89
2023-04-29T03:19:34.384Z,19.17
2023-04-29T03:22:07.848Z,19.22
2023-04-29T03:24:40.061Z,19.15
2023-04-29T03:27:12.249Z,19.26
2023-04-29T03:29:47.091Z,20.44
2023-04-29T03:32:19.854Z,20.00
2023-04-29T03:34:52.298Z,20.05
2023-04-29T03:37:24.550Z,20.20
2023-04-29T03:39:56.834Z,20.28
2023-04-29T03:42:29.149Z,20.54
2023-04-29T03:45:03.959Z,20.53
2023-04-29T03:47:36.319Z,21.07
2023-04-29T03:50:09.915Z,20.94
2023-04-29T03:52:42.369Z,21.08
2023-04-29T03:55:14.607Z,20.36
2023-04-29T03:57:46.779Z,20.68
2023-04-29T04:00:21.937Z,20.85
2023-04-29T04:02:54.451Z,21.39
2023-04-29T04:05:26.981Z,21.64
2023-04-29T04:08:00.723Z,21.74
2023-04-29T04:10:33.030Z,21.87
2023-04-29T04:13:05.301Z,21.00
2023-04-29T04:15:40.533Z,20.96
2023-04-29T04:18:12.869Z,21.21
2023-04-29T04:20:45.119Z,20.64
2023-04-29T04:23:17.582Z,20.42
2023-04-29T04:25:50.744Z,20.19
2023-04-29T04:28:23.013Z,19.89
2023-04-29T04:30:57.796Z,19.66
2023-04-29T04:33:31.482Z,19.46
2023-04-29T04:36:03.728Z,19.49
2023-04-29T04:38:36.266Z,18.96
2023-04-29T04:41:11.124Z,19.32
2023-04-29T04:43:43.828Z,19.18
2023-04-29T04:46:20.252Z,19.03
2023-04-29T04:48:52.543Z,19.01
2023-04-29T04:51:24.713Z,18.94
2023-04-29T04:53:56.918Z,18.59
2023-04-29T04:56:29.368Z,19.19
2023-04-29T04:59:01.542Z,18.90
2023-04-29T05:01:36.884Z,18.84
2023-04-29T05:04:09.715Z,18.54
2023-04-29T05:06:41.998Z,18.90
2023-04-29T05:09:14.199Z,18.58
2023-04-29T05:11:46.687Z,18.08
2023-04-29T05:14:18.926Z,17.88
2023-04-29T05:16:53.963Z,18.02
2023-04-29T05:19:26.216Z,17.93
2023-04-29T05:21:58.515Z,17.61
2023-04-29T05:24:30.938Z,17.49
2023-04-29T05:27:04.796Z,17.84
2023-04-29T05:29:37.065Z,17.94
2023-04-29T05:32:13.615Z,17.59
2023-04-29T05:34:46.175Z,18.00
2023-04-29T05:37:18.437Z,17.54
2023-04-29T05:39:50.808Z,17.29
2023-04-29T05:42:23.607Z,17.48
2023-04-29T05:44:55.930Z,17.67
2023-04-29T05:47:30.833Z,17.65
2023-04-29T05:50:03.620Z,17.84
2023-04-29T05:52:35.806Z,17.54
2023-04-29T05:55:08.515Z,18.16
2023-04-29T05:57:40.686Z,18.40
2023-04-29T06:00:14.191Z,18.20
2023-04-29T06:02:57.999Z,18.06
2023-04-29T06:05:31.660Z,17.93
2023-04-29T06:08:05.043Z,18.84
2023-04-29T06:10:37.265Z,18.75
2023-04-29T06:13:09.514Z,18.77
2023-04-29T06:15:42.133Z,18.86
2023-04-29T06:18:17.007Z,19.00
2023-04-29T06:20:49.238Z,18.59
2023-04-29T06:23:21.538Z,18.46
2023-04-29T06:25:53.759Z,18.71
2023-04-29T06:28:26.091Z,18.29
2023-04-29T06:30:58.344Z,18.69
2023-04-29T06:33:34.248Z,17.89
2023-04-29T06:36:06.456Z,18.06
2023-04-29T06:38:39.029Z,17.59
2023-04-29T06:41:11.301Z,17.59
2023-04-29T06:43:43.780Z,17.01
2023-04-29T06:46:16.545Z,17.27
2023-04-29T06:48:51.381Z,17.94
2023-04-29T06:51:23.617Z,17.04
2023-04-29T06:53:55.845Z,17.04
2023-04-29T06:56:28.120Z,16.90
2023-04-29T06:59:00.514Z,17.21
2023-04-29T07:01:32.789Z,17.09
2023-04-29T07:04:07.953Z,17.08
2023-04-29T07:06:40.271Z,16.68
2023-04-29T07:09:14.054Z,16.53
2023-04-29T07:11:46.507Z,16.05
2023-04-29T07:14:18.936Z,15.87
2023-04-29T07:16:51.225Z,15.89
2023-04-29T07:19:26.316Z,16.24
2023-04-29T07:21:58.581Z,15.65
2023-04-29T07:24:30.830Z,15.63
2023-04-29T07:27:03.074Z,15.05
2023-04-29T07:29:35.332Z,15.44
2023-04-29T07:32:08.199Z,15.32
2023-04-29T07:34:43.148Z,14.68
2023-04-29T07:37:15.413Z,14.34
2023-04-29T07:39:47.615Z,14.68
2023-04-29T07:42:19.963Z,13.91
2023-04-29T07:44:52.280Z,13.74
2023-04-29T07:47:24.677Z,13.57
2023-04-29T07:49:59.626Z,13.04
2023-04-29T07:52:32.110Z,12.46
2023-04-29T07:55:04.357Z,12.16
2023-04-29T07:57:37.010Z,12.44
2023-04-29T08:00:11.011Z,12.36
2023-04-29T08:02:43.505Z,12.41
2023-04-29T08:05:18.544Z,12.06
2023-04-29T08:07:51.246Z,12.16
2023-04-29T08:10:24.994Z,12.08
2023-04-29T08:12:57.237Z,11.72
2023-04-29T08:15:29.884Z,11.49
2023-04-29T08:18:02.224Z,11.01
2023-04-29T08:20:37.108Z,10.86
2023-04-29T08:23:09.345Z,10.70
2023-04-29T08:25:45.413Z,10.66
2023-04-29T08:28:17.720Z,10.69
2023-04-29T08:30:50.023Z,10.91
2023-04-29T08:33:22.428Z,11.09
2023-04-29T08:36:03.855Z,10.93
2023-04-29T08:38:36.179Z,11.07
2023-04-29T08:41:08.672Z,10.74
2023-04-29T08:43:41.496Z,11.28
2023-04-29T08:46:14.878Z,10.64
2023-04-29T08:48:48.236Z,10.49
2023-04-29T08:51:23.236Z,10.47
2023-04-29T08:53:58.538Z,10.36
2023-04-29T08:56:31.164Z,10.17
2023-04-29T08:59:06.776Z,10.11
2023-04-29T09:01:44.461Z,9.48
2023-04-29T09:04:26.087Z,9.49
2023-04-29T09:07:01.886Z,9.70
2023-04-29T09:09:35.874Z,9.80
2023-04-29T09:12:08.308Z,9.93
2023-04-29T09:14:41.467Z,10.29
2023-04-29T09:17:13.715Z,10.79
2023-04-29T09:19:48.122Z,10.71
2023-04-29T09:22:22.941Z,10.40
2023-04-29T09:24:55.227Z,10.39
2023-04-29T09:27:34.778Z,10.46
2023-04-29T09:30:07.070Z,9.64
2023-04-29T09:32:39.555Z,10.16
2023-04-29T09:35:28.072Z,10.06
2023-04-29T09:38:14.155Z,9.62
2023-04-29T09:40:59.091Z,9.86
2023-04-29T09:43:32.248Z,9.44
2023-04-29T09:46:04.909Z,9.88
2023-04-29T09:48:37.139Z,8.83
2023-04-29T09:51:09.508Z,8.15
2023-04-29T09:53:45.416Z,8.31
2023-04-29T09:56:17.571Z,8.44
2023-04-29T09:58:49.771Z,8.19
2023-04-29T10:01:25.097Z,8.24
2023-04-29T10:04:00.503Z,7.80
2023-04-29T10:06:32.834Z,8.15
2023-04-29T10:09:08.424Z,8.51
2023-04-29T10:11:41.195Z,8.29
2023-04-29T10:14:19.585Z,8.14
2023-04-29T10:16:54.279Z,8.43
2023-04-29T10:19:38.215Z,8.16
2023-04-29T10:22:16.140Z,8.98
2023-04-29T10:24:54.122Z,9.11
2023-04-29T10:27:29.142Z,8.56
2023-04-29T10:30:02.817Z,8.46
2023-04-29T10:35:15.685Z,8.92
2023-04-29T10:37:50.995Z,8.54
2023-04-29T10:40:31.877Z,8.31
2023-04-29T10:43:04.786Z,7.83
2023-04-29T10:45:38.617Z,7.50
2023-04-29T10:48:22.072Z,7.75
2023-04-29T10:51:07.369Z,7.34
2023-04-29T10:53:39.792Z,7.85
2023-04-29T10:56:16.065Z,7.31
2023-04-29T10:58:50.084Z,7.32
2023-04-29T11:01:46.805Z,7.37
2023-04-29T11:04:20.161Z,7.36
2023-04-29T11:06:57.664Z,7.02
2023-04-29T11:09:34.331Z,6.29
2023-04-29T11:12:13.786Z,7.04
2023-04-29T11:14:47.940Z,7.40
2023-04-29T11:17:23.597Z,7.28
2023-04-29T11:19:57.610Z,7.34
2023-04-29T11:22:33.981Z,7.23
2023-04-29T11:25:09.754Z,7.24
2023-04-29T11:27:46.470Z,7.20
2023-04-29T11:30:19.078Z,7.61
2023-04-29T11:32:52.265Z,7.35
2023-04-29T11:35:24.719Z,7.36
2023-04-29T11:37:56.933Z,6.53
2023-04-29T11:40:30.939Z,6.53
2023-04-29T11:43:05.849Z,6.84
2023-04-29T11:45:44.022Z,7.57
2023-04-29T11:48:22.425Z,7.15
2023-04-29T11:50:57.338Z,8.00
2023-04-29T11:53:30.705Z,8.29
2023-04-29T11:56:02.912Z,8.11
2023-04-29T11:58:37.853Z,7.56
2023-04-29T12:01:10.187Z,7.84
2023-04-29T12:03:43.302Z,8.18
2023-04-29T12:06:17.961Z,7.54
2023-04-29T12:08:51.730Z,7.60
2023-04-29T12:11:25.796Z,7.05
2023-04-29T12:14:02.744Z,7.48
2023-04-29T12:16:36.075Z,7.58
2023-04-29T12:19:10.661Z,7.49
2023-04-29T12:21:53.612Z,8.14
2023-04-29T12:24:26.000Z,7.94
2023-04-29T12:26:59.882Z,8.02
2023-04-29T12:29:36.381Z,7.98
2023-04-29T12:32:09.206Z,7.74
2023-04-29T12:34:43.391Z,7.99
2023-04-29T12:37:15.832Z,8.51
2023-04-29T12:39:48.340Z,8.22
2023-04-29T12:42:21.068Z,8.06
2023-04-29T12:44:56.196Z,7.55
2023-04-29T12:47:37.523Z,7.68
2023-04-29T12:50:11.896Z,8.03
2023-04-29T12:52:44.070Z,8.20
2023-04-29T12:55:16.391Z,7.37
2023-04-29T12:57:48.657Z,8.22
2023-04-29T13:00:24.185Z,7.68
2023-04-29T13:02:56.698Z,7.72
2023-04-29T13:05:29.141Z,7.67
2023-04-29T13:08:01.326Z,8.09
2023-04-29T13:10:33.787Z,7.94
2023-04-29T13:13:06.028Z,7.32
2023-04-29T13:15:41.471Z,7.39
2023-04-29T13:18:13.687Z,7.73
2023-04-29T13:20:45.854Z,7.81
2023-04-29T13:23:18.079Z,7.24
2023-04-29T13:25:51.009Z,7.76
2023-04-29T13:28:23.735Z,7.61
2023-04-29T13:30:58.614Z,7.28
2023-04-29T13:33:31.109Z,7.35
2023-04-29T13:36:03.310Z,7.51
2023-04-29T13:38:36.804Z,7.94
2023-04-29T13:41:14.426Z,7.26
2023-04-29T13:43:50.850Z,7.07
2023-04-29T13:46:26.176Z,7.05
2023-04-29T13:49:25.352Z,7.75
2023-04-29T13:52:16.935Z,8.18
2023-04-29T13:57:55.111Z,8.04
2023-04-29T14:00:31.937Z,7.54
2023-04-29T14:03:09.863Z,7.50
2023-04-29T14:05:42.490Z,7.67
2023-04-29T14:08:14.787Z,7.19
2023-04-29T14:10:48.105Z,7.26
2023-04-29T14:13:20.544Z,7.12
2023-04-29T14:15:53.196Z,7.30
2023-04-29T14:18:30.259Z,6.89
2023-04-29T14:21:02.732Z,6.54
2023-04-29T14:23:34.908Z,7.02
2023-04-29T14:26:26.563Z,6.99
2023-04-29T14:29:00.467Z,7.29
2023-04-29T14:31:35.001Z,7.00
2023-04-29T14:34:11.162Z,7.04
2023-04-29T14:36:45.425Z,6.84
2023-04-29T14:39:18.897Z,7.91
2023-04-29T14:41:51.150Z,7.24
2023-04-29T14:44:23.323Z,8.37
2023-04-29T14:46:55.876Z,9.64
2023-04-29T14:49:31.776Z,7.14
2023-04-29T14:52:04.881Z,6.10
2023-04-29T14:54:37.059Z,5.79
2023-04-29T14:57:09.369Z,5.69
2023-04-29T14:59:41.837Z,6.08
2023-04-29T15:02:14.015Z,7.29
2023-04-29T15:04:49.319Z,5.28
2023-04-29T15:07:23.010Z,5.66
2023-04-29T15:09:55.291Z,4.99
2023-04-29T15:12:27.505Z,4.71
2023-04-29T15:14:59.755Z,4.95
2023-04-29T15:17:31.990Z,4.83
2023-04-29T15:20:07.694Z,4.93
2023-04-29T15:22:39.890Z,4.84
2023-04-29T15:25:13.080Z,4.84
2023-04-29T15:27:45.237Z,5.31
2023-04-29T15:30:18.999Z,5.61
2023-04-29T15:32:51.248Z,6.19
2023-04-29T15:35:29.135Z,5.49
2023-04-29T15:38:01.779Z,5.51
2023-04-29T15:40:34.041Z,5.39
2023-04-29T15:43:06.177Z,5.39
2023-04-29T15:45:38.385Z,5.26
2023-04-29T15:48:10.991Z,5.21
2023-04-29T15:50:45.908Z,5.86
2023-04-29T15:53:18.127Z,6.14
2023-04-29T15:55:50.292Z,5.91
2023-04-29T15:58:22.432Z,5.63
2023-04-29T16:00:55.569Z,5.36
2023-04-29T16:03:28.302Z,5.22
2023-04-29T16:06:03.218Z,5.36
2023-04-29T16:08:35.512Z,5.09
2023-04-29T16:11:07.710Z,5.31
2023-04-29T16:13:40.483Z,5.82
2023-04-29T16:16:13.136Z,5.12
2023-04-29T16:18:45.410Z,5.27
2023-04-29T16:21:20.404Z,5.09
2023-04-29T16:23:53.105Z,4.68
2023-04-29T16:26:25.663Z,4.42
2023-04-29T16:28:58.058Z,4.76
2023-04-29T16:31:30.471Z,4.71
2023-04-29T16:34:03.493Z,5.21
2023-04-29T16:36:38.807Z,6.39
2023-04-29T16:39:11.027Z,5.42
2023-04-29T16:41:43.273Z,3.52
2023-04-29T16:44:15.563Z,4.16
2023-04-29T16:46:48.676Z,3.11
2023-04-29T16:49:29.080Z,3.01
2023-04-29T16:52:04.588Z,3.03
2023-04-29T16:54:37.439Z,2.32
2023-04-29T16:57:09.669Z,2.16
2023-04-29T16:59:41.885Z,2.01
2023-04-29T17:02:14.220Z,2.02
2023-04-29T17:04:46.556Z,1.91
2023-04-29T17:07:21.965Z,2.10
2023-04-29T17:09:55.343Z,1.81
2023-04-29T17:12:27.803Z,1.79
2023-04-29T17:15:00.780Z,1.84
2023-04-29T17:17:32.995Z,1.86
2023-04-29T17:20:09.239Z,1.79
2023-04-29T17:22:45.067Z,1.96
2023-04-29T17:25:18.123Z,1.79
2023-04-29T17:27:50.356Z,1.98
2023-04-29T17:30:22.713Z,1.92
2023-04-29T17:32:54.887Z,2.04
2023-04-29T17:35:27.170Z,2.13
2023-04-29T17:38:01.971Z,1.98
2023-04-29T17:40:34.203Z,1.94
2023-04-29T17:43:06.419Z,1.97
2023-04-29T17:45:43.401Z,2.03
2023-04-29T17:48:18.592Z,1.96
2023-04-29T17:50:51.301Z,2.14
2023-04-29T17:53:27.002Z,2.31
2023-04-29T17:55:59.174Z,2.54
2023-04-29T17:58:31.613Z,2.37
2023-04-29T18:01:03.789Z,2.38
2023-04-29T18:03:36.044Z,2.34
2023-04-29T18:06:09.006Z,2.61
2023-04-29T18:08:43.821Z,2.61
2023-04-29T18:11:16.173Z,2.84
2023-04-29T18:13:48.419Z,2.66
2023-04-29T18:16:20.660Z,2.46
2023-04-29T18:18:56.774Z,2.67
2023-04-29T18:21:32.069Z,2.84
2023-04-29T18:24:07.003Z,2.79
2023-04-29T18:26:39.298Z,3.21
2023-04-29T18:29:11.591Z,3.15
2023-04-29T18:31:43.835Z,3.11
2023-04-29T18:34:16.195Z,3.21
2023-04-29T18:36:48.426Z,3.24
2023-04-29T18:39:23.245Z,3.28
2023-04-29T18:41:56.244Z,3.34
2023-04-29T18:44:29.176Z,3.17
2023-04-29T18:47:01.929Z,3.38
2023-04-29T18:49:35.808Z,2.94
2023-04-29T18:52:09.617Z,2.85
2023-04-29T18:54:44.422Z,3.06
2023-04-29T18:57:16.585Z,3.10
2023-04-29T18:59:48.961Z,2.96
2023-04-29T19:02:21.145Z,3.04
2023-04-29T19:04:53.402Z,3.11
2023-04-29T19:07:25.899Z,3.09
2023-04-29T19:10:02.602Z,3.06
2023-04-29T19:12:34.806Z,3.16
2023-04-29T19:15:08.332Z,3.25
2023-04-29T19:17:40.645Z,3.56
2023-04-29T19:20:14.033Z,3.57
2023-04-29T19:22:46.437Z,3.58
2023-04-29T19:25:21.862Z,3.65
2023-04-29T19:27:54.307Z,3.62
2023-04-29T19:30:27.061Z,3.54
2023-04-29T19:32:59.336Z,4.19
2023-04-29T19:35:31.817Z,4.19
2023-04-29T19:38:04.004Z,3.94
2023-04-29T19:40:38.824Z,4.26
2023-04-29T19:43:11.010Z,4.52
2023-04-29T19:45:43.504Z,5.06
2023-04-29T19:48:15.746Z,5.34
2023-04-29T19:50:47.921Z,5.21
2023-04-29T19:53:20.429Z,5.58
2023-04-29T19:55:56.170Z,6.04
2023-04-29T19:58:28.393Z,6.11
2023-04-29T20:01:00.689Z,6.06
2023-04-29T20:03:33.008Z,6.16
2023-04-29T20:06:05.437Z,7.04
2023-04-29T20:08:37.871Z,6.76
2023-04-29T20:11:13.245Z,6.81
2023-04-29T20:13:46.054Z,7.31
2023-04-29T20:16:18.297Z,7.29
2023-04-29T20:18:50.469Z,7.40
2023-04-29T20:21:22.740Z,7.49
2023-04-29T20:23:54.930Z,7.69
2023-04-29T20:26:30.209Z,7.90
2023-04-29T20:29:02.687Z,7.96
2023-04-29T20:31:35.162Z,8.17
2023-04-29T20:34:07.527Z,8.31
2023-04-29T20:36:39.967Z,8.86
2023-04-29T20:39:12.228Z,8.78
2023-04-29T20:41:47.080Z,9.29
2023-04-29T20:44:19.334Z,9.23
2023-04-29T20:46:53.283Z,8.97
2023-04-29T20:49:25.713Z,9.39
2023-04-29T20:51:58.465Z,9.66
2023-04-29T20:54:30.718Z,9.54
2023-04-29T20:57:05.913Z,9.56
2023-04-29T20:59:38.477Z,9.66
2023-04-29T21:02:11.457Z,9.24
2023-04-29T21:04:43.740Z,9.55
2023-04-29T21:07:15.960Z,9.75
2023-04-29T21:09:48.847Z,10.21
2023-04-29T21:12:24.946Z,10.02
2023-04-29T21:14:57.144Z,10.21
2023-04-29T21:17:29.439Z,10.35
2023-04-29T21:20:01.668Z,10.31
2023-04-29T21:22:33.849Z,10.29
2023-04-29T21:25:06.089Z,10.49
2023-04-29T21:27:41.022Z,10.03
2023-04-29T21:30:14.142Z,10.10
2023-04-29T21:32:46.404Z,10.56
2023-04-29T21:35:18.860Z,10.56
2023-04-29T21:37:51.094Z,10.69
2023-04-29T21:40:24.004Z,10.79
2023-04-29T21:42:58.955Z,10.45
2023-04-29T21:45:31.336Z,11.04
2023-04-29T21:48:15.723Z,11.11
2023-04-29T21:50:48.651Z,11.23
2023-04-29T21:53:21.016Z,10.85
2023-04-29T21:55:54.332Z,10.94
2023-04-29T21:58:29.151Z,11.26
2023-04-29T22:01:03.299Z,10.77
2023-04-29T22:03:36.732Z,11.16
2023-04-29T22:06:09.333Z,11.02
2023-04-29T22:08:41.587Z,11.18
2023-04-29T22:11:14.005Z,10.80
2023-04-29T22:13:48.902Z,11.26
2023-04-29T22:16:23.624Z,11.58
2023-04-29T22:19:00.132Z,11.42
2023-04-29T22:21:32.387Z,11.39
2023-04-29T22:24:04.592Z,11.41
2023-04-29T22:26:36.776Z,11.34
2023-04-29T22:29:12.261Z,11.74
2023-04-29T22:31:44.634Z,11.43
2023-04-29T22:34:16.943Z,11.91
2023-04-29T22:36:49.148Z,11.62
2023-04-29T22:39:21.427Z,11.84
2023-04-29T22:41:53.624Z,12.48
2023-04-29T22:44:28.751Z,11.86
2023-04-29T22:47:01.193Z,11.46
2023-04-29T22:49:33.426Z,12.06
2023-04-29T22:52:05.815Z,12.04
2023-04-29T22:54:38.051Z,12.16
2023-04-29T22:57:10.291Z,11.93
2023-04-29T22:59:45.081Z,12.11
2023-04-29T23:02:17.286Z,12.04
2023-04-29T23:04:49.544Z,11.63
2023-04-29T23:07:21.768Z,10.74
2023-04-29T23:09:54.971Z,10.74
2023-04-29T23:12:27.428Z,10.49
2023-04-29T23:15:02.316Z,10.66
2023-04-29T23:17:37.742Z,11.96
2023-04-29T23:20:11.346Z,11.25
2023-04-29T23:22:43.486Z,11.28
2023-04-29T23:25:15.994Z,10.90
2023-04-29T23:27:48.220Z,10.91
2023-04-29T23:30:23.253Z,11.01
2023-04-29T23:32:55.509Z,11.50
2023-04-29T23:35:27.786Z,11.55
2023-04-29T23:38:00.005Z,11.61
2023-04-29T23:40:32.226Z,11.92
2023-04-29T23:43:04.494Z,11.66
2023-04-29T23:45:39.274Z,10.70
2023-04-29T23:48:12.348Z,10.55
2023-04-29T23:50:44.582Z,10.65
2023-04-29T23:53:16.767Z,10.25
2023-04-29T23:55:49.026Z,10.49
2023-04-29T23:58:21.251Z,10.16
